Time;durP1;ratioP1;P1;durP2;ratioP2;P2;SDS_P1;SDS_P2;PMS_P1;PMS_P2;Temp;Humidity;BMP_temperature;BMP_pressure;BME280_temperature;BME280_humidity;BME280_pressure;Samples;Min_cycle;Max_cycle;Signal;HPM_P1;HPM_P2
2023/06/06 00:01:49;;;;;;;7.43;3.22;;;26.30;99.90;;;;;;5016147;28;20134;-50
2023/06/06 00:04:15;;;;;;;3.90;2.80;;;26.30;99.90;;;;;;5015679;28;20029;-50
2023/06/06 00:06:44;;;;;;;4.95;2.95;;;26.30;99.90;;;;;;5014563;28;20052;-50
2023/06/06 00:09:10;;;;;;;4.03;2.85;;;26.20;99.90;;;;;;5015615;28;20044;-50
2023/06/06 00:11:39;;;;;;;3.57;2.20;;;26.30;99.90;;;;;;5015655;28;20091;-50
2023/06/06 00:14:08;;;;;;;3.40;2.33;;;26.30;99.90;;;;;;5015490;28;20075;-49
2023/06/06 00:16:34;;;;;;;5.03;3.20;;;26.20;99.90;;;;;;5015423;28;20022;-51
2023/06/06 00:19:01;;;;;;;3.22;2.55;;;26.30;99.90;;;;;;5015459;28;20168;-50
2023/06/06 00:21:27;;;;;;;4.00;3.15;;;26.20;99.90;;;;;;5015149;28;20503;-50
2023/06/06 00:23:55;;;;;;;4.30;3.08;;;26.20;99.90;;;;;;5015313;28;20466;-51
2023/06/06 00:26:20;;;;;;;3.63;2.58;;;26.20;99.90;;;;;;5015414;28;20399;-49
2023/06/06 00:28:46;;;;;;;3.22;2.60;;;26.20;99.90;;;;;;5015022;28;20041;-50
2023/06/06 00:31:13;;;;;;;3.08;2.60;;;26.20;99.90;;;;;;5013494;28;20427;-50
2023/06/06 00:33:39;;;;;;;3.03;2.45;;;26.20;99.90;;;;;;5014830;28;20459;-50
2023/06/06 00:36:05;;;;;;;4.07;2.92;;;26.30;99.90;;;;;;5014619;28;20041;-50
2023/06/06 00:38:32;;;;;;;3.42;2.60;;;26.20;99.90;;;;;;5014672;28;20018;-50
2023/06/06 00:40:58;;;;;;;3.97;2.67;;;26.20;99.90;;;;;;5014677;28;20028;-50
2023/06/06 00:43:23;;;;;;;3.05;2.50;;;26.20;99.90;;;;;;5014476;28;20104;-50
2023/06/06 00:45:50;;;;;;;5.93;3.00;;;26.20;99.90;;;;;;5014575;28;20022;-50
2023/06/06 00:48:18;;;;;;;3.83;2.60;;;26.20;99.90;;;;;;5014439;28;20038;-50
2023/06/06 00:50:44;;;;;;;3.88;2.97;;;26.20;99.90;;;;;;5014576;28;20025;-50
2023/06/06 00:53:10;;;;;;;4.15;2.65;;;26.20;99.90;;;;;;5013045;28;20021;-49
2023/06/06 00:55:37;;;;;;;4.03;2.55;;;26.20;99.90;;;;;;5014218;28;20018;-50
2023/06/06 00:58:04;;;;;;;4.82;2.60;;;26.20;99.90;;;;;;5014650;28;20510;-50
2023/06/06 01:00:32;;;;;;;2.53;2.33;;;26.20;99.90;;;;;;5014611;28;20113;-50
2023/06/06 01:03:01;;;;;;;3.88;2.90;;;26.20;99.90;;;;;;5014117;28;20395;-49
2023/06/06 01:05:27;;;;;;;3.33;2.33;;;26.20;99.90;;;;;;5013966;28;20030;-49
2023/06/06 01:07:53;;;;;;;3.65;3.00;;;26.20;99.90;;;;;;5014125;28;20108;-50
2023/06/06 01:10:21;;;;;;;3.00;2.28;;;26.20;99.90;;;;;;5014196;28;20033;-50
2023/06/06 01:12:47;;;;;;;3.58;2.38;;;26.20;99.90;;;;;;5013945;28;20079;-50
2023/06/06 01:15:27;;;;;;;2.92;2.28;;;26.20;99.90;;;;;;5013893;28;20058;-50
2023/06/06 01:17:53;;;;;;;3.83;2.58;;;26.20;99.90;;;;;;5013819;28;20017;-50
2023/06/06 01:20:22;;;;;;;3.42;2.45;;;26.20;99.90;;;;;;5014106;28;20018;-50
2023/06/06 01:22:48;;;;;;;2.80;2.35;;;26.20;99.90;;;;;;5013629;28;20029;-50
2023/06/06 01:25:19;;;;;;;2.97;2.30;;;26.10;99.90;;;;;;5013970;28;20021;-51
2023/06/06 01:27:46;;;;;;;3.13;2.70;;;26.20;99.90;;;;;;5013765;28;20029;-51
2023/06/06 01:30:13;;;;;;;4.53;2.70;;;26.20;99.90;;;;;;5013700;28;20018;-50
2023/06/06 01:32:47;;;;;;;4.10;2.47;;;26.20;99.90;;;;;;5013502;28;20053;-50
2023/06/06 01:35:22;;;;;;;4.00;2.42;;;26.10;99.90;;;;;;5013919;28;20049;-51
2023/06/06 01:38:16;;;;;;;3.10;2.35;;;26.20;99.90;;;;;;5013363;28;20022;-50
2023/06/06 01:40:44;;;;;;;4.25;2.45;;;26.10;99.90;;;;;;5011256;28;20526;-51
2023/06/06 01:43:10;;;;;;;3.15;2.33;;;26.10;99.90;;;;;;5013285;28;20018;-51
2023/06/06 01:45:39;;;;;;;3.60;2.40;;;26.20;99.90;;;;;;5013609;28;20504;-50
2023/06/06 01:48:05;;;;;;;2.58;2.38;;;26.10;99.90;;;;;;5013409;28;20050;-50
2023/06/06 01:50:35;;;;;;;4.05;2.35;;;26.20;99.90;;;;;;5013617;28;20478;-50
2023/06/06 01:53:01;;;;;;;2.67;2.33;;;26.10;99.90;;;;;;5013239;28;20030;-50
2023/06/06 01:55:26;;;;;;;2.97;2.38;;;26.10;99.90;;;;;;5013718;28;20113;-51
2023/06/06 01:57:52;;;;;;;3.30;2.28;;;26.10;99.90;;;;;;5013339;28;20044;-50
2023/06/06 02:00:19;;;;;;;3.97;2.45;;;26.10;99.90;;;;;;5027063;22;20022;-57
2023/06/06 02:02:45;;;;;;;2.70;2.05;;;26.10;99.90;;;;;;5032202;28;20045;-58
2023/06/06 02:05:11;;;;;;;3.03;2.35;;;26.10;99.90;;;;;;5033106;28;20029;-59
2023/06/06 02:07:37;;;;;;;2.95;1.90;;;26.10;99.90;;;;;;5032739;28;20028;-58
2023/06/06 02:10:04;;;;;;;3.92;2.38;;;26.10;99.90;;;;;;5033070;28;20053;-59
2023/06/06 02:12:31;;;;;;;3.38;2.17;;;26.10;99.90;;;;;;5033052;28;20036;-60
2023/06/06 02:14:57;;;;;;;3.25;2.35;;;26.10;99.90;;;;;;5032814;28;20378;-59
2023/06/06 02:17:23;;;;;;;2.92;1.92;;;26.10;99.90;;;;;;5032919;28;20103;-59
2023/06/06 02:19:49;;;;;;;2.50;2.00;;;26.10;99.90;;;;;;5032930;28;20470;-59
2023/06/06 02:22:15;;;;;;;2.83;2.47;;;26.10;99.90;;;;;;5032673;28;20057;-60
2023/06/06 02:24:40;;;;;;;2.70;2.42;;;26.10;99.90;;;;;;5032858;28;20026;-60
2023/06/06 02:27:09;;;;;;;3.60;2.50;;;26.10;99.90;;;;;;5032757;28;20061;-59
2023/06/06 02:29:36;;;;;;;2.90;2.05;;;26.10;99.90;;;;;;5032395;28;20029;-60
2023/06/06 02:32:03;;;;;;;2.42;2.03;;;26.10;99.90;;;;;;5032923;28;20021;-58
2023/06/06 02:34:29;;;;;;;2.50;2.20;;;26.10;99.90;;;;;;5032573;28;20371;-60
2023/06/06 02:36:56;;;;;;;2.58;1.95;;;26.10;99.90;;;;;;5032570;28;20068;-60
2023/06/06 02:39:25;;;;;;;1.95;1.50;;;26.10;99.90;;;;;;5031616;28;20359;-59
2023/06/06 02:41:51;;;;;;;3.28;2.25;;;26.10;99.90;;;;;;5032515;28;20022;-60
2023/06/06 02:44:19;;;;;;;3.65;1.92;;;26.10;99.90;;;;;;5032525;28;20104;-60
2023/06/06 02:46:45;;;;;;;2.70;2.10;;;26.10;99.90;;;;;;5032539;28;20041;-59
2023/06/06 02:49:11;;;;;;;2.30;2.10;;;26.10;99.90;;;;;;5032655;28;20061;-59
2023/06/06 02:51:37;;;;;;;2.85;2.13;;;26.10;99.90;;;;;;5032712;28;20045;-59
2023/06/06 02:54:03;;;;;;;3.28;2.10;;;26.10;99.90;;;;;;5032461;28;20032;-59
2023/06/06 02:56:29;;;;;;;2.28;1.95;;;26.10;99.90;;;;;;5032516;28;20117;-59
2023/06/06 02:58:55;;;;;;;3.35;2.20;;;26.10;99.90;;;;;;5032580;28;20018;-59
2023/06/06 03:01:21;;;;;;;5.80;2.15;;;26.10;99.90;;;;;;5037463;22;20066;-49
2023/06/06 03:03:48;;;;;;;4.30;2.30;;;26.10;99.90;;;;;;5032467;28;20092;-49
2023/06/06 03:06:15;;;;;;;3.10;2.22;;;26.10;99.90;;;;;;5032568;28;20029;-50
2023/06/06 03:08:43;;;;;;;1.77;1.67;;;26.10;99.90;;;;;;5032315;28;20099;-49
2023/06/06 03:11:09;;;;;;;2.30;1.73;;;26.10;99.90;;;;;;5032470;28;20024;-49
2023/06/06 03:13:35;;;;;;;2.45;1.67;;;26.10;99.90;;;;;;5032556;28;20021;-50
2023/06/06 03:16:01;;;;;;;2.58;2.15;;;26.10;99.90;;;;;;5034138;28;20028;-50
2023/06/06 03:18:27;;;;;;;2.50;1.90;;;26.10;99.90;;;;;;5034664;28;20040;-49
2023/06/06 03:20:53;;;;;;;3.17;2.13;;;26.10;99.90;;;;;;5036032;28;20100;-50
2023/06/06 03:23:20;;;;;;;2.08;1.58;;;26.10;99.90;;;;;;5035614;28;20466;-51
2023/06/06 03:25:51;;;;;;;2.88;1.73;;;26.10;99.90;;;;;;5036038;28;20109;-51
2023/06/06 03:28:18;;;;;;;2.95;2.00;;;26.10;99.90;;;;;;5035432;28;20112;-50
2023/06/06 03:30:47;;;;;;;2.05;1.85;;;26.10;99.90;;;;;;5035773;28;20021;-50
2023/06/06 03:33:14;;;;;;;1.75;1.65;;;26.10;99.90;;;;;;5035596;28;20038;-50
2023/06/06 03:35:40;;;;;;;1.60;1.50;;;26.10;99.90;;;;;;5036007;28;20377;-50
2023/06/06 03:38:06;;;;;;;2.28;1.60;;;26.10;99.90;;;;;;5034097;28;20826;-50
2023/06/06 03:40:32;;;;;;;2.53;2.10;;;26.10;99.90;;;;;;5035763;28;20101;-50
2023/06/06 03:42:58;;;;;;;2.90;1.70;;;26.10;99.90;;;;;;5035808;28;20025;-50
2023/06/06 03:45:24;;;;;;;2.13;1.73;;;26.00;99.90;;;;;;5034126;28;20111;-50
2023/06/06 03:47:54;;;;;;;1.95;1.75;;;26.00;99.90;;;;;;5035674;28;20037;-50
2023/06/06 03:50:21;;;;;;;5.93;1.63;;;26.00;99.90;;;;;;5035221;28;20025;-50
2023/06/06 03:52:47;;;;;;;2.10;1.83;;;26.10;99.90;;;;;;5034127;28;20034;-50
2023/06/06 03:55:13;;;;;;;2.00;1.77;;;26.00;99.90;;;;;;5035388;28;20029;-50
2023/06/06 03:57:39;;;;;;;3.58;1.88;;;26.00;99.90;;;;;;5035160;28;20029;-50
2023/06/06 04:00:13;;;;;;;2.00;1.52;;;26.10;99.90;;;;;;5035411;28;20025;-51
2023/06/06 04:02:46;;;;;;;1.73;1.50;;;26.00;99.90;;;;;;5035841;28;20044;-50
2023/06/06 04:05:13;;;;;;;2.72;1.65;;;26.00;99.90;;;;;;5035332;28;20032;-50
2023/06/06 04:07:39;;;;;;;3.07;1.70;;;26.00;99.90;;;;;;5034608;28;20038;-49
2023/06/06 04:10:06;;;;;;;3.05;1.60;;;26.00;99.90;;;;;;5034958;28;20267;-53
2023/06/06 04:12:32;;;;;;;3.50;2.05;;;26.00;99.90;;;;;;5034927;28;20041;-52
2023/06/06 04:14:57;;;;;;;4.20;1.75;;;26.00;99.90;;;;;;5034656;28;20427;-54
2023/06/06 04:17:24;;;;;;;4.40;1.50;;;25.90;99.90;;;;;;5034940;28;20084;-53
2023/06/06 04:19:51;;;;;;;4.65;1.80;;;25.90;99.90;;;;;;5034965;28;20018;-54
2023/06/06 04:22:18;;;;;;;4.47;1.52;;;25.90;99.90;;;;;;5034637;28;20057;-55
2023/06/06 04:24:44;;;;;;;;;;;25.80;99.90;;;;;;5034892;28;20084;-56
2023/06/06 04:27:10;;;;;;;5.63;1.63;;;25.80;99.90;;;;;;5034438;28;19905;-58
2023/06/06 04:29:36;;;;;;;4.68;1.40;;;25.70;99.90;;;;;;5033982;28;20125;-54
2023/06/06 04:32:04;;;;;;;4.47;1.43;;;25.70;99.90;;;;;;5034468;28;20014;-55
2023/06/06 04:34:30;;;;;;;4.85;1.73;;;25.70;99.90;;;;;;5034291;28;20060;-55
2023/06/06 04:37:06;;;;;;;6.32;2.13;;;25.60;99.90;;;;;;5032683;28;20021;-56
2023/06/06 04:39:36;;;;;;;2.55;1.40;;;25.60;99.90;;;;;;5034438;28;20043;-56
2023/06/06 04:42:04;;;;;;;5.15;1.40;;;25.50;99.90;;;;;;5020490;28;20102;-55
2023/06/06 04:44:34;;;;;;;5.82;1.23;;;25.50;99.90;;;;;;5033270;28;20029;-55
2023/06/06 04:47:01;;;;;;;3.13;1.30;;;25.50;99.90;;;;;;5034326;28;20053;-56
2023/06/06 04:49:37;;;;;;;3.53;1.92;;;25.40;99.90;;;;;;5034135;28;20037;-57
2023/06/06 04:52:05;;;;;;;5.80;1.83;;;25.40;99.90;;;;;;5034152;28;20032;-54
2023/06/06 04:54:33;;;;;;;12.63;2.72;;;25.40;99.90;;;;;;5034093;28;20044;-54
2023/06/06 04:56:59;;;;;;;;;;;25.30;99.90;;;;;;5034427;28;20397;-49
2023/06/06 04:59:27;;;;;;;7.40;2.20;;;25.30;99.90;;;;;;5034178;28;20353;-49
2023/06/06 05:01:55;;;;;;;6.65;1.58;;;25.30;99.90;;;;;;5019457;28;20073;-50
2023/06/06 05:04:21;;;;;;;3.70;1.90;;;25.30;99.90;;;;;;5034056;28;20030;-52
2023/06/06 05:06:47;;;;;;;3.15;1.52;;;25.30;99.90;;;;;;5033621;28;20036;-51
2023/06/06 05:09:13;;;;;;;3.97;1.73;;;25.30;99.90;;;;;;5034162;28;20120;-49
2023/06/06 05:11:45;;;;;;;8.05;2.17;;;25.40;99.90;;;;;;5033653;28;20441;-49
2023/06/06 05:14:11;;;;;;;10.13;1.92;;;25.40;99.90;;;;;;5034077;28;20045;-49
2023/06/06 05:16:36;;;;;;;6.40;1.85;;;25.40;99.90;;;;;;5033560;28;20026;-49
2023/06/06 05:19:02;;;;;;;4.43;1.38;;;25.40;99.90;;;;;;5033920;28;20402;-49
2023/06/06 05:21:28;;;;;;;5.38;1.90;;;25.40;99.90;;;;;;5033491;28;20053;-48
2023/06/06 05:23:54;;;;;;;3.58;1.63;;;25.40;99.90;;;;;;5033658;28;20048;-48
2023/06/06 05:26:20;;;;;;;3.72;1.80;;;25.40;99.90;;;;;;5031940;28;20478;-49
2023/06/06 05:28:46;;;;;;;3.60;1.52;;;25.40;99.90;;;;;;5033781;28;20039;-48
2023/06/06 05:31:16;;;;;;;3.70;1.60;;;25.40;99.90;;;;;;5033426;28;20026;-49
2023/06/06 05:33:42;;;;;;;3.53;1.92;;;25.40;99.90;;;;;;5020904;28;20029;-49
2023/06/06 05:36:09;;;;;;;10.05;2.58;;;25.40;99.90;;;;;;5033598;28;20084;-49
2023/06/06 05:38:35;;;;;;;3.30;1.85;;;25.50;99.90;;;;;;5032296;28;20498;-48
2023/06/06 05:41:01;;;;;;;3.97;2.00;;;25.50;99.90;;;;;;5033337;28;20030;-48
2023/06/06 05:43:30;;;;;;;4.25;1.52;;;25.50;99.90;;;;;;5033089;28;20018;-49
2023/06/06 05:45:56;;;;;;;4.72;1.92;;;25.50;99.90;;;;;;5031721;28;20472;-49
2023/06/06 05:48:22;;;;;;;2.10;1.50;;;25.50;99.90;;;;;;5033019;28;20466;-49
2023/06/06 05:50:48;;;;;;;5.22;1.80;;;25.50;99.90;;;;;;5033078;28;20022;-51
2023/06/06 05:53:14;;;;;;;5.00;1.80;;;25.50;99.90;;;;;;5031792;28;20025;-52
2023/06/06 05:55:40;;;;;;;4.18;2.10;;;25.50;99.90;;;;;;5033118;28;20116;-50
2023/06/06 05:58:06;;;;;;;3.28;1.40;;;25.50;99.90;;;;;;5032693;28;20478;-50
2023/06/06 06:00:33;;;;;;;4.45;2.10;;;25.50;99.90;;;;;;5032704;28;20036;-50
2023/06/06 06:02:59;;;;;;;;;;;25.50;99.90;;;;;;5033248;28;20068;-50
2023/06/06 06:05:29;;;;;;;3.22;1.73;;;25.60;99.90;;;;;;5032992;28;19996;-50
2023/06/06 06:07:59;;;;;;;3.83;2.03;;;25.60;99.90;;;;;;5032909;28;20030;-50
2023/06/06 06:10:35;;;;;;;4.22;2.00;;;25.60;99.90;;;;;;5032691;28;20022;-49
2023/06/06 06:13:02;;;;;;;3.63;1.95;;;25.60;99.90;;;;;;5032811;28;20032;-49
2023/06/06 06:15:30;;;;;;;3.92;1.65;;;25.60;99.90;;;;;;5032795;28;20099;-50
2023/06/06 06:17:56;;;;;;;2.88;1.73;;;25.60;99.90;;;;;;5032934;28;20486;-49
2023/06/06 06:20:22;;;;;;;2.90;1.80;;;25.60;99.90;;;;;;5019650;28;20053;-48
2023/06/06 06:22:48;;;;;;;4.28;1.88;;;25.60;99.90;;;;;;5032618;28;20025;-49
2023/06/06 06:25:16;;;;;;;4.78;1.83;;;25.60;99.90;;;;;;5032880;28;20030;-48
2023/06/06 06:27:43;;;;;;;7.30;1.63;;;25.60;99.90;;;;;;5032746;28;20095;-49
2023/06/06 06:30:10;;;;;;;3.85;1.60;;;25.60;99.90;;;;;;5032585;28;20366;-49
2023/06/06 06:32:38;;;;;;;4.82;1.98;;;25.60;99.90;;;;;;5032886;28;20033;-51
2023/06/06 06:35:05;;;;;;;3.97;1.77;;;25.60;99.90;;;;;;5032704;28;20100;-52
2023/06/06 06:37:33;;;;;;;5.93;1.90;;;25.60;99.90;;;;;;5032845;28;20033;-51
2023/06/06 06:39:59;;;;;;;4.32;1.52;;;25.60;99.90;;;;;;5032679;28;20489;-51
2023/06/06 06:42:26;;;;;;;2.55;1.90;;;25.60;99.90;;;;;;5032601;28;20044;-49
2023/06/06 06:44:52;;;;;;;2.42;1.70;;;25.60;99.90;;;;;;5032299;28;20041;-49
2023/06/06 06:47:18;;;;;;;3.75;2.10;;;25.60;99.90;;;;;;5032399;28;20378;-50
2023/06/06 06:49:44;;;;;;;2.95;1.70;;;25.60;99.90;;;;;;5032737;28;20029;-50
2023/06/06 06:52:11;;;;;;;3.85;1.85;;;25.70;99.90;;;;;;5036667;28;20466;-54
2023/06/06 06:54:48;;;;;;;2.95;1.75;;;25.60;99.90;;;;;;5036531;28;20029;-50
2023/06/06 06:57:16;;;;;;;2.50;1.80;;;25.60;99.90;;;;;;5024059;28;20355;-50
2023/06/06 06:59:42;;;;;;;2.17;1.45;;;25.70;99.90;;;;;;5036133;28;20040;-49
2023/06/06 07:02:08;;;;;;;4.80;1.50;;;25.70;99.90;;;;;;5036122;28;20494;-52
2023/06/06 07:04:34;;;;;;;4.70;2.00;;;25.70;99.90;;;;;;5036313;28;20018;-49
2023/06/06 07:07:01;;;;;;;2.88;1.95;;;25.70;99.90;;;;;;5035793;28;20488;-50
2023/06/06 07:09:26;;;;;;;4.20;2.00;;;25.70;99.90;;;;;;5036246;28;20063;-50
2023/06/06 07:11:52;;;;;;;2.65;1.83;;;25.70;99.90;;;;;;5035993;28;20431;-50
2023/06/06 07:14:18;;;;;;;1.90;1.70;;;25.70;99.90;;;;;;5036415;28;20022;-50
2023/06/06 07:16:44;;;;;;;2.30;1.65;;;25.70;99.90;;;;;;5036062;28;20362;-50
2023/06/06 07:19:09;;;;;;;4.78;2.30;;;25.70;99.90;;;;;;5035964;28;20105;-50
2023/06/06 07:21:36;;;;;;;3.05;1.52;;;25.80;99.90;;;;;;5035988;28;20032;-50
2023/06/06 07:24:02;;;;;;;3.20;2.00;;;25.80;99.90;;;;;;5035805;28;20018;-51
2023/06/06 07:26:28;;;;;;;5.20;2.22;;;25.70;99.90;;;;;;5034312;28;20056;-51
2023/06/06 07:28:54;;;;;;;3.13;2.13;;;25.70;99.90;;;;;;5034188;28;20076;-50
2023/06/06 07:31:20;;;;;;;3.60;2.08;;;25.80;99.90;;;;;;5035807;28;20032;-50
2023/06/06 07:33:45;;;;;;;3.67;2.00;;;25.80;99.90;;;;;;5035506;28;20018;-50
2023/06/06 07:36:11;;;;;;;2.85;1.98;;;25.80;99.90;;;;;;5035850;28;20112;-50
2023/06/06 07:38:37;;;;;;;3.70;2.40;;;25.80;99.90;;;;;;5035417;28;20025;-50
2023/06/06 07:41:03;;;;;;;3.45;1.90;;;25.80;99.90;;;;;;5035605;28;20018;-50
2023/06/06 07:43:28;;;;;;;2.85;2.08;;;25.80;99.90;;;;;;5035632;28;20033;-50
2023/06/06 07:45:54;;;;;;;4.68;2.13;;;25.80;99.90;;;;;;5035220;28;20022;-50
2023/06/06 07:48:20;;;;;;;4.05;2.67;;;25.80;99.90;;;;;;5035185;28;20037;-49
2023/06/06 07:50:46;;;;;;;4.00;1.95;;;25.80;99.90;;;;;;5035500;28;20100;-50
2023/06/06 07:53:11;;;;;;;3.00;2.15;;;25.80;99.90;;;;;;5035092;28;20351;-51
2023/06/06 07:55:37;;;;;;;3.05;1.92;;;25.80;99.90;;;;;;5035379;28;20513;-52
2023/06/06 07:58:10;;;;;;;4.10;2.20;;;25.80;99.90;;;;;;5035498;28;20039;-51
2023/06/06 08:00:36;;;;;;;4.20;2.55;;;25.80;99.90;;;;;;5034518;28;20020;-50
2023/06/06 08:03:02;;;;;;;2.85;2.10;;;25.80;99.90;;;;;;5022439;28;20120;-50
2023/06/06 08:05:27;;;;;;;3.15;2.10;;;25.80;99.90;;;;;;5035196;28;20067;-51
2023/06/06 08:07:54;;;;;;;3.33;2.28;;;25.90;99.90;;;;;;5034772;28;20117;-51
2023/06/06 08:10:20;;;;;;;3.03;2.00;;;25.90;99.90;;;;;;5035088;28;20021;-51
2023/06/06 08:12:46;;;;;;;5.60;2.67;;;25.90;99.90;;;;;;5035010;28;20061;-52
2023/06/06 08:15:13;;;;;;;5.50;2.20;;;25.90;99.90;;;;;;5034855;28;20417;-53
2023/06/06 08:17:38;;;;;;;4.13;2.77;;;25.90;99.90;;;;;;5035030;28;20025;-51
2023/06/06 08:20:08;;;;;;;4.38;2.22;;;25.90;99.90;;;;;;5034775;28;20026;-53
2023/06/06 08:22:37;;;;;;;5.85;3.38;;;25.90;99.90;;;;;;5034645;28;20014;-51
2023/06/06 08:25:07;;;;;;;4.45;2.42;;;25.90;99.90;;;;;;5034535;28;20025;-51
2023/06/06 08:27:34;;;;;;;4.47;2.58;;;25.90;99.90;;;;;;5034664;28;20100;-52
2023/06/06 08:30:00;;;;;;;5.25;2.75;;;25.90;99.90;;;;;;5034186;28;20049;-52
2023/06/06 08:32:27;;;;;;;3.83;2.33;;;25.90;99.90;;;;;;5034538;28;20018;-51
2023/06/06 08:34:54;;;;;;;4.00;2.40;;;25.90;99.90;;;;;;5034448;28;20018;-51
2023/06/06 08:37:19;;;;;;;4.00;3.08;;;25.90;99.90;;;;;;5034353;28;20104;-50
2023/06/06 08:39:47;;;;;;;5.28;2.67;;;25.90;99.90;;;;;;5034349;28;20531;-51
2023/06/06 08:42:17;;;;;;;3.88;2.75;;;26.00;99.90;;;;;;5034265;28;20013;-50
2023/06/06 08:44:44;;;;;;;3.55;2.45;;;26.00;99.90;;;;;;5034238;28;20040;-50
2023/06/06 08:47:11;;;;;;;4.50;2.70;;;25.90;99.90;;;;;;5034097;28;20041;-50
2023/06/06 08:49:37;;;;;;;;;;;25.90;99.90;;;;;;5034733;28;20030;-50
2023/06/06 08:52:05;;;;;;;4.45;2.53;;;26.00;99.90;;;;;;5034047;28;19913;-51
2023/06/06 08:54:32;;;;;;;3.85;3.05;;;26.00;99.90;;;;;;5034382;28;20025;-52
2023/06/06 08:57:07;;;;;;;4.93;2.85;;;26.00;99.90;;;;;;5034117;28;20531;-52
2023/06/06 08:59:37;;;;;;;5.30;2.95;;;26.00;99.90;;;;;;5034009;28;20477;-53
2023/06/06 09:02:05;;;;;;;3.58;2.85;;;26.00;99.90;;;;;;5033842;28;20046;-49
2023/06/06 09:04:33;;;;;;;3.55;2.83;;;26.00;99.90;;;;;;5034092;28;20079;-50
2023/06/06 09:07:04;;;;;;;8.00;3.65;;;26.00;99.90;;;;;;5033800;28;20017;-49
2023/06/06 09:09:33;;;;;;;3.63;2.70;;;26.00;99.90;;;;;;5033992;28;20041;-50
2023/06/06 09:11:59;;;;;;;5.50;3.10;;;26.00;99.90;;;;;;5033579;28;20034;-50
2023/06/06 09:14:25;;;;;;;5.28;3.35;;;26.00;99.90;;;;;;5032644;28;20478;-50
2023/06/06 09:16:54;;;;;;;3.47;3.05;;;26.00;99.90;;;;;;5033503;28;20394;-51
2023/06/06 09:19:25;;;;;;;4.95;3.53;;;26.00;99.90;;;;;;5033995;28;20048;-51
2023/06/06 09:21:51;;;;;;;3.95;2.95;;;26.00;99.90;;;;;;5033519;28;20028;-50
2023/06/06 09:24:17;;;;;;;6.57;3.17;;;26.10;99.90;;;;;;5033915;28;20031;-49
2023/06/06 09:26:43;;;;;;;6.25;3.25;;;26.10;99.90;;;;;;5033518;28;20113;-50
2023/06/06 09:29:11;;;;;;;6.10;2.88;;;26.10;99.90;;;;;;5033533;28;20452;-52
2023/06/06 09:31:38;;;;;;;4.32;2.80;;;26.10;99.90;;;;;;5033429;28;20079;-51
2023/06/06 09:34:06;;;;;;;5.07;3.23;;;26.10;99.90;;;;;;5020334;28;20565;-51
2023/06/06 09:36:32;;;;;;;5.90;3.50;;;26.10;99.90;;;;;;5033429;28;20051;-51
2023/06/06 09:39:09;;;;;;;5.47;3.35;;;26.10;99.90;;;;;;5019857;28;20028;-51
2023/06/06 09:41:46;;;;;;;5.25;3.55;;;26.10;99.90;;;;;;5032874;28;20021;-52
2023/06/06 09:44:22;;;;;;;4.78;3.83;;;26.10;99.90;;;;;;5031791;28;20148;-52
2023/06/06 09:46:59;;;;;;;6.38;3.22;;;26.10;99.90;;;;;;5033258;28;20045;-52
2023/06/06 09:49:25;;;;;;;4.88;3.17;;;26.10;99.90;;;;;;5033234;28;20036;-50
2023/06/06 09:51:54;;;;;;;5.18;3.72;;;26.20;99.90;;;;;;5032943;28;20104;-52
2023/06/06 09:54:22;;;;;;;4.97;3.55;;;26.10;99.90;;;;;;5033187;28;20109;-51
2023/06/06 09:56:49;;;;;;;5.00;3.17;;;26.10;99.90;;;;;;5033025;28;20437;-52
2023/06/06 09:59:16;;;;;;;5.13;3.40;;;26.10;99.90;;;;;;5033072;28;20021;-52
2023/06/06 10:01:43;;;;;;;6.78;3.63;;;26.10;99.90;;;;;;5031292;28;20049;-52
2023/06/06 10:04:09;;;;;;;6.40;3.92;;;26.10;99.90;;;;;;5033160;28;20013;-52
2023/06/06 10:06:38;;;;;;;5.68;3.75;;;26.10;99.90;;;;;;5033034;28;20373;-53
2023/06/06 10:09:05;;;;;;;3.83;3.40;;;26.20;99.90;;;;;;5032769;28;20391;-52
2023/06/06 10:11:33;;;;;;;9.82;3.60;;;26.20;99.90;;;;;;5032907;28;20378;-52
2023/06/06 10:14:01;;;;;;;4.25;3.78;;;26.20;99.90;;;;;;5033106;28;20022;-53
2023/06/06 10:16:29;;;;;;;5.05;3.40;;;26.20;99.90;;;;;;5032759;28;20024;-53
2023/06/06 10:18:57;;;;;;;5.05;3.63;;;26.20;99.90;;;;;;5048341;28;20437;-52
2023/06/06 10:21:28;;;;;;;5.40;3.33;;;26.20;99.90;;;;;;5032642;28;20088;-52
2023/06/06 10:23:54;;;;;;;3.70;3.22;;;26.20;99.90;;;;;;5033012;28;20424;-54
2023/06/06 10:26:32;;;;;;;5.13;3.55;;;26.20;99.90;;;;;;5037011;28;20028;-52
2023/06/06 10:29:13;;;;;;;6.47;3.95;;;26.30;99.90;;;;;;5036769;28;20382;-54
2023/06/06 10:31:57;;;;;;;5.28;3.47;;;26.20;99.90;;;;;;5036559;28;20428;-52
2023/06/06 10:34:35;;;;;;;6.43;4.07;;;26.30;99.90;;;;;;5037095;28;20033;-53
2023/06/06 10:37:25;;;;;;;6.07;3.63;;;26.30;99.90;;;;;;5036741;28;20044;-53
2023/06/06 10:40:03;;;;;;;4.45;3.53;;;26.30;99.90;;;;;;5036604;28;20030;-52
2023/06/06 10:42:41;;;;;;;4.65;3.70;;;26.30;99.90;;;;;;5036803;28;20516;-52
2023/06/06 10:45:07;;;;;;;3.75;3.33;;;26.40;99.90;;;;;;5036490;28;20072;-54
2023/06/06 10:47:41;;;;;;;5.28;3.53;;;26.40;99.90;;;;;;5036970;28;20029;-53
2023/06/06 10:50:12;;;;;;;5.20;4.07;;;26.40;99.90;;;;;;5036508;28;20544;-52
2023/06/06 10:52:54;;;;;;;7.60;3.97;;;26.40;99.90;;;;;;5036478;28;20128;-52
2023/06/06 10:55:22;;;;;;;5.90;4.22;;;26.40;99.90;;;;;;5036427;28;20029;-53
2023/06/06 10:58:17;;;;;;;6.00;4.20;;;26.40;99.90;;;;;;5036482;28;20030;-54
2023/06/06 11:00:44;;;;;;;6.40;4.47;;;26.40;99.90;;;;;;5036003;28;20092;-54
2023/06/06 11:03:13;;;;;;;5.43;4.05;;;26.40;99.90;;;;;;5036250;28;20033;-53
2023/06/06 11:06:01;;;;;;;4.75;3.78;;;26.50;99.90;;;;;;5036231;28;20124;-53
2023/06/06 11:08:33;;;;;;;6.40;4.50;;;26.50;99.90;;;;;;5036175;28;20485;-53
2023/06/06 11:11:17;;;;;;;4.20;3.63;;;26.50;99.90;;;;;;5023894;28;20367;-52
2023/06/06 11:14:09;;;;;;;4.80;4.30;;;26.50;99.90;;;;;;5036136;28;20029;-52
2023/06/06 11:16:38;;;;;;;6.93;5.28;;;26.50;99.90;;;;;;5034730;28;20040;-53
2023/06/06 11:19:18;;;;;;;6.63;4.75;;;26.50;99.90;;;;;;5035958;28;20021;-53
2023/06/06 11:21:45;;;;;;;7.00;4.68;;;26.50;99.90;;;;;;5035992;28;20462;-54
2023/06/06 11:24:12;;;;;;;5.72;5.00;;;26.60;99.90;;;;;;5035678;28;20100;-52
2023/06/06 11:26:41;;;;;;;6.50;4.93;;;26.60;99.90;;;;;;5036012;28;20489;-53
2023/06/06 11:29:08;;;;;;;6.07;4.63;;;26.60;99.90;;;;;;5035802;28;20434;-54
2023/06/06 11:31:37;;;;;;;;;;;26.60;99.90;;;;;;5036276;28;20025;-52
2023/06/06 11:34:11;;;;;;;7.15;4.88;;;26.60;99.90;;;;;;5035746;28;19905;-54
2023/06/06 11:36:39;;;;;;;7.68;4.72;;;26.60;99.90;;;;;;5034722;28;20061;-53
2023/06/06 11:39:05;;;;;;;;;;;26.60;99.90;;;;;;5034676;28;20028;-52
2023/06/06 11:41:43;;;;;;;8.63;4.90;;;26.60;99.90;;;;;;5034219;28;20000;-54
2023/06/06 11:44:08;;;;;;;;;;;26.60;99.90;;;;;;5024446;28;20022;-54
2023/06/06 11:46:51;;;;;;;5.30;4.47;;;26.70;99.90;;;;;;5035032;28;19905;-53
2023/06/06 11:49:18;;;;;;;5.18;4.18;;;26.70;99.90;;;;;;5034123;28;20056;-52
2023/06/06 11:52:05;;;;;;;7.38;4.95;;;26.70;99.90;;;;;;5035056;28;20029;-52
2023/06/06 11:54:30;;;;;;;6.38;4.70;;;26.70;99.90;;;;;;5033599;28;20021;-52
2023/06/06 11:56:57;;;;;;;5.18;4.68;;;26.70;99.90;;;;;;5035211;28;20104;-52
2023/06/06 11:59:24;;;;;;;5.68;4.40;;;26.70;99.90;;;;;;5035199;28;20792;-53
2023/06/06 12:01:53;;;;;;;7.45;4.70;;;26.70;99.90;;;;;;5034997;28;20124;-53
2023/06/06 12:04:25;;;;;;;5.80;4.68;;;26.70;99.90;;;;;;5034820;28;20025;-54
2023/06/06 12:06:53;;;;;;;6.38;4.60;;;26.70;99.90;;;;;;5034971;28;20373;-54
2023/06/06 12:09:19;;;;;;;;;;;26.70;99.90;;;;;;5035365;28;20041;-53
2023/06/06 12:12:04;;;;;;;7.40;4.78;;;26.80;99.90;;;;;;5035223;28;19913;-52
2023/06/06 12:14:32;;;;;;;6.88;4.55;;;26.80;99.90;;;;;;5034924;28;20096;-53
2023/06/06 12:17:06;;;;;;;6.50;4.50;;;26.80;99.90;;;;;;5034924;28;20017;-54
2023/06/06 12:19:33;;;;;;;9.10;5.53;;;26.80;99.90;;;;;;5035021;28;20030;-52
2023/06/06 12:21:59;;;;;;;7.30;4.95;;;26.80;99.90;;;;;;5034751;28;20018;-52
2023/06/06 12:24:30;;;;;;;8.93;6.32;;;26.80;99.90;;;;;;5033434;28;20035;-51
2023/06/06 12:27:02;;;;;;;13.35;7.82;;;26.80;99.90;;;;;;5034558;28;20050;-52
2023/06/06 12:29:35;;;;;;;9.65;6.57;;;26.80;99.90;;;;;;5034494;28;20061;-52
2023/06/06 12:32:17;;;;;;;13.50;8.68;;;26.80;99.90;;;;;;5034393;28;20028;-53
2023/06/06 12:34:50;;;;;;;12.63;8.30;;;26.80;99.90;;;;;;5034752;28;20478;-53
2023/06/06 12:37:17;;;;;;;12.15;7.88;;;26.80;99.90;;;;;;5034403;28;20033;-53
2023/06/06 12:39:44;;;;;;;16.80;8.97;;;26.90;99.90;;;;;;5034763;28;20022;-53
2023/06/06 12:42:19;;;;;;;12.95;8.65;;;26.90;99.90;;;;;;5034382;28;20351;-53
2023/06/06 12:44:46;;;;;;;17.75;9.68;;;26.90;99.90;;;;;;5034017;28;20025;-53
2023/06/06 12:47:17;;;;;;;16.42;9.63;;;26.90;99.90;;;;;;5034178;28;20025;-52
2023/06/06 12:49:44;;;;;;;16.58;10.18;;;26.90;99.90;;;;;;5034486;28;20029;-51
2023/06/06 12:52:11;;;;;;;;;;;26.90;99.90;;;;;;5034747;28;20343;-52
2023/06/06 12:54:41;;;;;;;16.83;10.95;;;26.90;99.90;;;;;;5034376;28;20346;-54